createdAt,value
2023-04-09T00:01:01.834Z,15.90
2023-04-09T00:02:13.638Z,14.55
2023-04-09T00:03:25.468Z,15.88
2023-04-09T00:04:37.039Z,15.30
2023-04-09T00:05:48.496Z,14.95
2023-04-09T00:06:59.895Z,14.13
2023-04-09T00:08:11.323Z,15.52
2023-04-09T00:09:22.818Z,14.95
2023-04-09T00:10:34.263Z,14.88
2023-04-09T00:11:45.932Z,14.88
2023-04-09T00:12:57.478Z,16.17
2023-04-09T00:14:08.926Z,13.52
2023-04-09T00:15:30.169Z,18.73
2023-04-09T00:16:42.500Z,17.65
2023-04-09T00:17:54.021Z,18.92
2023-04-09T00:19:06.013Z,20.13
2023-04-09T00:20:17.441Z,23.23
2023-04-09T00:21:28.905Z,18.02
2023-04-09T00:22:40.443Z,15.52
2023-04-09T00:23:51.893Z,22.73
2023-04-09T00:25:03.454Z,16.55
2023-04-09T00:26:14.947Z,13.40
2023-04-09T00:27:26.495Z,12.70
2023-04-09T00:28:37.893Z,13.10
2023-04-09T00:29:49.331Z,19.00
2023-04-09T00:31:00.782Z,15.35
2023-04-09T00:32:12.304Z,17.15
2023-04-09T00:33:23.808Z,19.25
2023-04-09T00:34:35.413Z,15.95
2023-04-09T00:35:46.880Z,24.75
2023-04-09T00:36:58.449Z,24.63
2023-04-09T00:38:09.906Z,20.58
2023-04-09T00:39:21.408Z,27.17
2023-04-09T00:40:33.112Z,24.92
2023-04-09T00:41:44.589Z,27.50
2023-04-09T00:42:57.129Z,22.27
2023-04-09T00:44:08.618Z,20.50
2023-04-09T00:45:20.120Z,16.35
2023-04-09T00:46:32.006Z,19.73
2023-04-09T00:47:45.500Z,15.82
2023-04-09T00:48:57.021Z,16.38
2023-04-09T00:50:08.684Z,14.50
2023-04-09T00:51:20.100Z,15.25
2023-04-09T00:52:31.671Z,23.33
2023-04-09T00:53:44.021Z,14.82
2023-04-09T00:54:55.490Z,22.45
2023-04-09T00:56:07.108Z,23.80
2023-04-09T00:57:19.116Z,21.83
2023-04-09T00:58:30.653Z,19.52
2023-04-09T00:59:42.663Z,19.30
2023-04-09T01:00:54.157Z,23.83
2023-04-09T01:02:05.707Z,21.88
2023-04-09T01:03:17.342Z,19.88
2023-04-09T01:04:29.074Z,24.23
2023-04-09T01:05:43.455Z,20.35
2023-04-09T01:07:21.129Z,22.52
2023-04-09T01:08:38.667Z,22.70
2023-04-09T01:10:05.286Z,23.05
2023-04-09T01:11:28.925Z,24.58
2023-04-09T01:13:06.487Z,22.02
2023-04-09T01:14:24.324Z,18.52
2023-04-09T01:15:40.050Z,24.83
2023-04-09T01:16:57.409Z,17.17
2023-04-09T01:18:13.815Z,16.55
2023-04-09T01:19:28.273Z,12.90
2023-04-09T01:20:41.581Z,20.70
2023-04-09T01:21:54.210Z,18.63
2023-04-09T01:23:11.423Z,19.08
2023-04-09T01:24:42.663Z,18.00
2023-04-09T01:26:12.548Z,20.20
2023-04-09T01:27:24.747Z,13.38
2023-04-09T01:28:45.900Z,15.00
2023-04-09T01:29:57.994Z,15.60
2023-04-09T01:31:13.750Z,14.98
2023-04-09T01:32:25.754Z,16.27
2023-04-09T01:33:38.123Z,27.58
2023-04-09T01:34:49.957Z,19.25
2023-04-09T01:36:01.672Z,12.00
2023-04-09T01:37:15.418Z,13.20
2023-04-09T01:38:27.763Z,12.77
2023-04-09T01:39:39.249Z,11.07
2023-04-09T01:40:50.994Z,11.73
2023-04-09T01:42:03.974Z,10.27
2023-04-09T01:43:15.756Z,11.27
2023-04-09T01:44:27.679Z,13.95
2023-04-09T01:45:39.735Z,14.45
2023-04-09T01:46:51.571Z,12.30
2023-04-09T01:48:04.183Z,13.02
2023-04-09T01:49:16.476Z,13.65
2023-04-09T01:50:28.002Z,12.40
2023-04-09T01:51:39.534Z,12.85
2023-04-09T01:52:51.109Z,16.35
2023-04-09T01:54:03.063Z,21.38
2023-04-09T01:55:14.530Z,14.65
2023-04-09T01:56:25.996Z,18.02
2023-04-09T01:57:37.542Z,16.45
2023-04-09T01:58:49.016Z,14.13
2023-04-09T02:00:00.605Z,16.55
2023-04-09T02:01:33.561Z,18.50
2023-04-09T02:03:02.250Z,14.13
2023-04-09T02:04:24.346Z,20.90
2023-04-09T02:05:37.746Z,13.68
2023-04-09T02:07:15.626Z,12.10
2023-04-09T02:08:28.169Z,16.77
2023-04-09T02:09:41.060Z,16.33
2023-04-09T02:10:56.535Z,13.05
2023-04-09T02:12:12.235Z,15.45
2023-04-09T02:13:24.605Z,15.65
2023-04-09T02:14:37.129Z,16.92
2023-04-09T02:15:49.548Z,19.52
2023-04-09T02:17:01.481Z,19.77
2023-04-09T02:18:28.827Z,14.00
2023-04-09T02:19:44.655Z,16.40
2023-04-09T02:20:56.505Z,13.15
2023-04-09T02:22:08.066Z,18.40
2023-04-09T02:23:19.556Z,15.10
2023-04-09T02:24:30.996Z,16.27
2023-04-09T02:25:42.988Z,13.80
2023-04-09T02:26:54.379Z,11.63
2023-04-09T02:28:05.855Z,14.05
2023-04-09T02:29:17.235Z,17.58
2023-04-09T02:30:28.672Z,13.35
2023-04-09T02:31:40.159Z,14.73
2023-04-09T02:32:51.624Z,13.38
2023-04-09T02:34:03.130Z,15.70
2023-04-09T02:35:15.404Z,13.10
2023-04-09T02:36:27.766Z,11.38
2023-04-09T02:37:39.202Z,15.02
2023-04-09T02:38:50.896Z,16.05
2023-04-09T02:40:02.528Z,15.23
2023-04-09T02:41:14.084Z,10.18
2023-04-09T02:42:25.675Z,13.60
2023-04-09T02:43:37.439Z,15.45
2023-04-09T02:44:48.886Z,12.38
2023-04-09T02:46:00.483Z,13.18
2023-04-09T02:47:12.105Z,16.73
2023-04-09T02:48:23.545Z,22.50
2023-04-09T02:49:35.097Z,18.00
2023-04-09T02:50:46.613Z,21.30
2023-04-09T02:51:58.079Z,28.42
2023-04-09T02:53:09.608Z,21.35
2023-04-09T02:54:21.171Z,23.45
2023-04-09T02:55:32.684Z,24.75
2023-04-09T02:56:44.146Z,17.88
2023-04-09T02:57:55.540Z,18.77
2023-04-09T02:59:07.022Z,17.55
2023-04-09T03:00:18.457Z,17.88
2023-04-09T03:01:30.022Z,14.45
2023-04-09T03:02:41.775Z,19.50
2023-04-09T03:03:53.410Z,23.52
2023-04-09T03:05:05.448Z,15.73
2023-04-09T03:06:18.442Z,16.85
2023-04-09T03:07:30.065Z,19.60
2023-04-09T03:08:41.655Z,20.13
2023-04-09T03:09:53.039Z,19.38
2023-04-09T03:11:04.518Z,21.13
2023-04-09T03:12:16.006Z,17.90
2023-04-09T03:13:27.737Z,17.98
2023-04-09T03:14:39.142Z,19.75
2023-04-09T03:15:53.445Z,20.00
2023-04-09T03:17:04.902Z,24.70
2023-04-09T03:18:16.358Z,20.08
2023-04-09T03:19:27.892Z,23.70
2023-04-09T03:20:39.666Z,21.92
2023-04-09T03:21:51.442Z,18.60
2023-04-09T03:23:03.101Z,18.40
2023-04-09T03:24:14.767Z,15.63
2023-04-09T03:25:26.269Z,20.52
2023-04-09T03:26:38.129Z,28.45
2023-04-09T03:27:49.572Z,35.30
2023-04-09T03:29:01.311Z,41.97
2023-04-09T03:30:12.719Z,32.30
2023-04-09T03:31:24.300Z,37.83
2023-04-09T03:32:35.879Z,37.15
2023-04-09T03:33:47.345Z,39.63
2023-04-09T03:34:58.884Z,46.20
2023-04-09T03:36:10.413Z,38.75
2023-04-09T03:37:21.987Z,34.55
2023-04-09T03:38:33.426Z,32.30
2023-04-09T03:39:44.862Z,34.88
2023-04-09T03:40:56.315Z,28.88
2023-04-09T03:42:07.784Z,33.40
2023-04-09T03:43:19.240Z,26.92
2023-04-09T03:44:30.744Z,22.88
2023-04-09T03:45:42.375Z,22.50
2023-04-09T03:46:53.909Z,22.13
2023-04-09T03:48:05.562Z,24.50
2023-04-09T03:49:16.988Z,20.55
2023-04-09T03:50:28.390Z,25.80
2023-04-09T03:51:39.873Z,22.52
2023-04-09T03:52:51.303Z,18.73
2023-04-09T03:54:02.794Z,21.67
2023-04-09T03:55:14.288Z,22.85
2023-04-09T03:56:25.811Z,25.85
2023-04-09T03:57:37.312Z,25.30
2023-04-09T03:58:49.860Z,28.95
2023-04-09T04:00:01.366Z,31.10
2023-04-09T04:01:12.795Z,28.38
2023-04-09T04:02:26.938Z,28.70
2023-04-09T04:03:38.873Z,28.88
2023-04-09T04:04:50.690Z,28.15
2023-04-09T04:06:03.086Z,28.10
2023-04-09T04:07:14.516Z,27.45
2023-04-09T04:08:25.953Z,26.38
2023-04-09T04:09:37.627Z,27.90
2023-04-09T04:10:49.089Z,29.42
2023-04-09T04:12:02.307Z,24.33
2023-04-09T04:13:13.872Z,24.95
2023-04-09T04:14:25.383Z,18.02
2023-04-09T04:15:41.457Z,23.02
2023-04-09T04:16:52.973Z,20.35
2023-04-09T04:18:04.432Z,22.67
2023-04-09T04:19:16.077Z,19.23
2023-04-09T04:20:27.598Z,20.65
2023-04-09T04:21:39.016Z,19.70
2023-04-09T04:22:50.491Z,23.40
2023-04-09T04:24:01.918Z,26.70
2023-04-09T04:25:13.394Z,21.25
2023-04-09T04:26:24.916Z,20.13
2023-04-09T04:27:36.355Z,18.25
2023-04-09T04:28:47.825Z,19.23
2023-04-09T04:30:00.179Z,16.33
2023-04-09T04:31:12.245Z,19.83
2023-04-09T04:32:23.733Z,22.65
2023-04-09T04:33:35.397Z,21.00
2023-04-09T04:34:48.898Z,22.30
2023-04-09T04:36:06.869Z,16.52
2023-04-09T04:37:18.325Z,23.30
2023-04-09T04:38:29.741Z,20.25
2023-04-09T04:39:41.139Z,20.27
2023-04-09T04:40:52.613Z,20.77
2023-04-09T04:42:04.062Z,17.30
2023-04-09T04:43:15.542Z,31.60
2023-04-09T04:44:27.032Z,27.00
2023-04-09T04:45:38.619Z,19.77
2023-04-09T04:46:50.098Z,19.40
2023-04-09T04:48:01.667Z,27.40
2023-04-09T04:49:13.168Z,18.65
2023-04-09T04:50:24.614Z,19.20
2023-04-09T04:51:36.021Z,17.70
2023-04-09T04:52:47.431Z,18.75
2023-04-09T04:53:58.840Z,20.50
2023-04-09T04:55:10.525Z,17.83
2023-04-09T04:56:22.047Z,20.23
2023-04-09T04:57:33.460Z,22.98
2023-04-09T04:58:45.082Z,18.40
2023-04-09T04:59:56.522Z,26.65
2023-04-09T05:01:08.061Z,18.15
2023-04-09T05:02:19.727Z,21.50
2023-04-09T05:03:31.440Z,29.35
2023-04-09T05:04:42.945Z,22.55
2023-04-09T05:05:54.419Z,29.63
2023-04-09T05:07:06.187Z,32.45
2023-04-09T05:08:17.736Z,25.67
2023-04-09T05:09:29.170Z,27.02
2023-04-09T05:10:41.647Z,24.45
2023-04-09T05:11:53.096Z,21.98
2023-04-09T05:13:04.528Z,21.05
2023-04-09T05:14:16.199Z,19.55
2023-04-09T05:15:27.675Z,24.85
2023-04-09T05:16:39.140Z,24.08
2023-04-09T05:17:51.058Z,22.30
2023-04-09T05:19:02.564Z,21.83
2023-04-09T05:20:14.052Z,19.38
2023-04-09T05:21:25.886Z,19.30
2023-04-09T05:22:37.471Z,23.80
2023-04-09T05:23:48.933Z,17.55
2023-04-09T05:25:00.409Z,23.90
2023-04-09T05:26:12.206Z,23.45
2023-04-09T05:27:26.068Z,19.60
2023-04-09T05:28:38.066Z,16.27
2023-04-09T05:29:49.642Z,14.05
2023-04-09T05:31:01.112Z,15.38
2023-04-09T05:32:12.673Z,19.15
2023-04-09T05:33:24.121Z,15.00
2023-04-09T05:34:35.718Z,18.60
2023-04-09T05:35:47.163Z,21.08
2023-04-09T05:36:58.642Z,16.52
2023-04-09T05:38:10.743Z,16.80
2023-04-09T05:39:22.195Z,17.10
2023-04-09T05:40:33.659Z,16.67
2023-04-09T05:41:45.152Z,15.68
2023-04-09T05:42:56.693Z,18.60
2023-04-09T05:44:08.144Z,21.20
2023-04-09T05:45:19.572Z,22.98
2023-04-09T05:46:31.524Z,21.13
2023-04-09T05:47:43.082Z,22.30
2023-04-09T05:48:54.637Z,21.50
2023-04-09T05:50:06.474Z,22.45
2023-04-09T05:51:17.917Z,24.73
2023-04-09T05:52:29.351Z,25.77
2023-04-09T05:53:41.304Z,31.17
2023-04-09T05:54:52.892Z,26.92
2023-04-09T05:56:12.649Z,25.65
2023-04-09T05:57:24.220Z,21.25
2023-04-09T05:58:36.266Z,20.05
2023-04-09T05:59:47.655Z,23.10
2023-04-09T06:00:59.094Z,17.85
2023-04-09T06:02:10.847Z,18.85
2023-04-09T06:03:22.618Z,17.30
2023-04-09T06:04:34.276Z,20.48
2023-04-09T06:05:45.915Z,19.27
2023-04-09T06:07:00.293Z,17.48
2023-04-09T06:08:12.825Z,18.85
2023-04-09T06:09:24.344Z,16.98
2023-04-09T06:10:35.798Z,16.92
2023-04-09T06:11:47.195Z,17.60
2023-04-09T06:12:58.630Z,15.25
2023-04-09T06:14:12.400Z,19.63
2023-04-09T06:15:23.846Z,16.42
2023-04-09T06:16:36.140Z,16.70
2023-04-09T06:17:47.651Z,22.60
2023-04-09T06:18:59.143Z,25.52
2023-04-09T06:20:10.861Z,29.73
2023-04-09T06:21:22.980Z,28.05
2023-04-09T06:22:34.418Z,21.95
2023-04-09T06:23:47.698Z,23.48
2023-04-09T06:24:59.708Z,25.05
2023-04-09T06:26:11.279Z,29.50
2023-04-09T06:27:22.878Z,30.92
2023-04-09T06:28:34.347Z,29.85
2023-04-09T06:29:45.867Z,19.90
2023-04-09T06:30:57.860Z,31.65
2023-04-09T06:32:09.294Z,31.77
2023-04-09T06:33:21.182Z,33.53
2023-04-09T06:34:32.650Z,30.25
2023-04-09T06:35:44.105Z,27.35
2023-04-09T06:36:56.082Z,26.80
2023-04-09T06:38:07.883Z,29.20
2023-04-09T06:39:21.741Z,18.40
2023-04-09T06:40:33.191Z,22.80
2023-04-09T06:41:44.613Z,21.00
2023-04-09T06:42:56.248Z,27.13
2023-04-09T06:44:07.694Z,29.77
2023-04-09T06:45:19.089Z,26.92
2023-04-09T06:46:30.603Z,24.20
2023-04-09T06:47:42.535Z,30.88
2023-04-09T06:48:54.372Z,22.60
2023-04-09T06:50:06.191Z,31.80
2023-04-09T06:51:17.659Z,32.67
2023-04-09T06:52:29.232Z,27.55
2023-04-09T06:53:40.781Z,28.30
2023-04-09T06:54:52.238Z,29.75
2023-04-09T06:56:03.814Z,45.42
2023-04-09T06:57:15.351Z,35.53
2023-04-09T06:58:26.827Z,30.45
2023-04-09T06:59:38.935Z,29.50
2023-04-09T07:00:50.932Z,35.53
2023-04-09T07:02:02.698Z,52.58
2023-04-09T07:03:14.694Z,43.13
2023-04-09T07:04:26.372Z,37.63
2023-04-09T07:05:37.837Z,34.63
2023-04-09T07:06:49.313Z,35.83
2023-04-09T07:08:00.797Z,29.52
2023-04-09T07:09:12.443Z,28.65
2023-04-09T07:10:23.898Z,29.70
2023-04-09T07:11:35.363Z,24.13
2023-04-09T07:12:46.809Z,26.27
2023-04-09T07:14:00.396Z,25.55
2023-04-09T07:15:11.834Z,30.65
2023-04-09T07:16:23.712Z,36.55
2023-04-09T07:17:35.449Z,31.60
2023-04-09T07:18:47.012Z,21.83
2023-04-09T07:19:58.539Z,24.75
2023-04-09T07:21:09.984Z,29.95
2023-04-09T07:22:22.460Z,22.92
2023-04-09T07:23:37.152Z,18.13
2023-04-09T07:24:54.400Z,19.17
2023-04-09T07:26:06.186Z,18.80
2023-04-09T07:27:17.819Z,12.60
2023-04-09T07:28:29.306Z,15.52
2023-04-09T07:29:43.944Z,16.17
2023-04-09T07:30:55.406Z,15.18
2023-04-09T07:32:07.104Z,14.93
2023-04-09T07:33:18.663Z,31.67
2023-04-09T07:34:30.116Z,13.77
2023-04-09T07:35:42.357Z,14.52
2023-04-09T07:36:54.003Z,18.10
2023-04-09T07:38:05.431Z,13.38
2023-04-09T07:39:17.398Z,16.60
2023-04-09T07:40:28.971Z,15.32
2023-04-09T07:41:40.763Z,15.80
2023-04-09T07:42:54.184Z,12.90
2023-04-09T07:44:06.532Z,13.50
2023-04-09T07:45:18.187Z,13.18
2023-04-09T07:46:29.897Z,12.70
2023-04-09T07:47:42.358Z,12.05
2023-04-09T07:48:54.001Z,11.48
2023-04-09T07:50:06.036Z,11.40
2023-04-09T07:51:17.473Z,13.13
2023-04-09T07:52:28.946Z,12.68
2023-04-09T07:53:40.627Z,12.18
2023-04-09T07:54:52.089Z,12.88
2023-04-09T07:56:03.692Z,12.05
2023-04-09T07:57:15.113Z,10.40
2023-04-09T07:58:26.579Z,11.57
2023-04-09T07:59:38.179Z,14.27
2023-04-09T08:00:49.772Z,9.90
2023-04-09T08:02:01.353Z,12.52
2023-04-09T08:03:14.044Z,9.82
2023-04-09T08:04:26.053Z,11.35
2023-04-09T08:05:38.243Z,12.55
2023-04-09T08:06:53.668Z,10.40
2023-04-09T08:08:05.360Z,13.57
2023-04-09T08:09:17.447Z,16.30
2023-04-09T08:10:28.907Z,10.13
2023-04-09T08:11:40.524Z,11.73
2023-04-09T08:12:51.945Z,9.10
2023-04-09T08:14:04.675Z,9.75
2023-04-09T08:15:16.265Z,10.05
2023-04-09T08:16:28.006Z,12.85
2023-04-09T08:17:39.613Z,15.88
2023-04-09T08:18:51.506Z,11.80
2023-04-09T08:20:06.892Z,10.13
2023-04-09T08:21:18.537Z,11.30
2023-04-09T08:22:30.610Z,12.90
2023-04-09T08:23:42.212Z,14.32
2023-04-09T08:24:53.854Z,11.43
2023-04-09T08:26:05.349Z,9.48
2023-04-09T08:27:18.045Z,10.05
2023-04-09T08:28:29.520Z,10.70
2023-04-09T08:29:42.612Z,10.00
2023-04-09T08:30:54.172Z,37.50
2023-04-09T08:32:06.335Z,19.20
2023-04-09T08:33:17.841Z,10.83
2023-04-09T08:34:29.322Z,12.90
2023-04-09T08:35:41.550Z,11.07
2023-04-09T08:36:53.116Z,9.37
2023-04-09T08:38:04.567Z,9.87
2023-04-09T08:39:20.105Z,8.77
2023-04-09T08:40:34.361Z,7.17
2023-04-09T08:41:46.217Z,8.07
2023-04-09T08:42:58.316Z,10.00
2023-04-09T08:44:09.783Z,8.70
2023-04-09T08:45:21.319Z,10.95
2023-04-09T08:46:35.840Z,7.50
2023-04-09T08:47:50.063Z,9.40
2023-04-09T08:49:01.957Z,10.33
2023-04-09T08:50:14.444Z,10.13
2023-04-09T08:51:26.823Z,9.93
2023-04-09T08:52:39.056Z,8.30
2023-04-09T08:53:56.618Z,10.67
2023-04-09T08:55:11.350Z,8.57
2023-04-09T08:56:22.934Z,8.93
2023-04-09T08:57:38.389Z,8.33
2023-04-09T08:58:49.968Z,9.10
2023-04-09T09:00:01.495Z,11.20
2023-04-09T09:01:18.957Z,9.57
2023-04-09T09:02:31.540Z,14.40
2023-04-09T09:03:58.325Z,6.67
2023-04-09T09:05:09.813Z,7.87
2023-04-09T09:06:22.235Z,5.30
2023-04-09T09:07:34.413Z,9.13
2023-04-09T09:08:59.308Z,7.57
2023-04-09T09:10:10.793Z,7.93
2023-04-09T09:11:27.105Z,8.77
2023-04-09T09:12:41.997Z,5.70
2023-04-09T09:14:03.747Z,7.37
2023-04-09T09:15:28.230Z,8.07
2023-04-09T09:16:43.257Z,8.03
2023-04-09T09:17:59.652Z,7.13
2023-04-09T09:19:28.657Z,6.07
2023-04-09T09:20:40.599Z,6.50
2023-04-09T09:21:58.966Z,8.27
2023-04-09T09:23:10.879Z,8.07
2023-04-09T09:24:22.323Z,9.63
2023-04-09T09:25:40.570Z,8.87
2023-04-09T09:26:52.357Z,7.63
2023-04-09T09:28:08.411Z,9.43
2023-04-09T09:29:20.148Z,8.87
2023-04-09T09:30:32.573Z,7.93
2023-04-09T09:31:49.378Z,9.80
2023-04-09T09:33:08.120Z,8.20
2023-04-09T09:34:25.248Z,11.63
2023-04-09T09:35:49.438Z,9.33
2023-04-09T09:37:00.928Z,8.70
2023-04-09T09:38:12.475Z,9.07
2023-04-09T09:39:23.887Z,8.67
2023-04-09T09:40:35.350Z,8.30
2023-04-09T09:41:47.458Z,10.73
2023-04-09T09:42:58.981Z,7.83
2023-04-09T09:44:11.555Z,9.93
2023-04-09T09:45:23.710Z,8.00
2023-04-09T09:46:36.678Z,8.07
2023-04-09T09:47:48.589Z,9.00
2023-04-09T09:49:00.179Z,7.90
2023-04-09T09:50:13.922Z,11.67
2023-04-09T09:51:27.832Z,8.87
2023-04-09T09:52:39.401Z,7.13
2023-04-09T09:53:51.803Z,5.43
2023-04-09T09:55:05.365Z,8.90
2023-04-09T09:56:19.428Z,10.13
2023-04-09T09:57:31.698Z,7.40
2023-04-09T09:58:53.384Z,8.17
2023-04-09T10:00:06.256Z,9.17
2023-04-09T10:01:19.479Z,6.27
2023-04-09T10:02:37.420Z,6.53
2023-04-09T10:03:50.159Z,8.50
2023-04-09T10:05:02.167Z,12.33
2023-04-09T10:06:14.476Z,8.63
2023-04-09T10:07:26.735Z,6.27
2023-04-09T10:08:41.206Z,7.70
2023-04-09T10:09:54.403Z,7.70
2023-04-09T10:11:06.898Z,7.93
2023-04-09T10:12:20.638Z,7.40
2023-04-09T10:13:39.414Z,6.93
2023-04-09T10:14:55.765Z,6.97
2023-04-09T10:16:07.596Z,9.70
2023-04-09T10:17:19.649Z,6.63
2023-04-09T10:18:33.656Z,6.07
2023-04-09T10:19:49.425Z,6.33
2023-04-09T10:21:07.943Z,6.47
2023-04-09T10:22:21.248Z,6.47
2023-04-09T10:23:36.274Z,7.03
2023-04-09T10:24:47.879Z,8.37
2023-04-09T10:25:59.338Z,8.73
2023-04-09T10:27:16.248Z,7.20
2023-04-09T10:28:28.498Z,4.23
2023-04-09T10:29:49.593Z,6.47
2023-04-09T10:31:01.368Z,8.27
2023-04-09T10:32:13.404Z,8.17
2023-04-09T10:33:27.004Z,6.63
2023-04-09T10:34:42.623Z,6.93
2023-04-09T10:35:55.316Z,21.93
2023-04-09T10:37:08.454Z,10.27
2023-04-09T10:38:36.097Z,6.07
2023-04-09T10:39:48.100Z,9.07
2023-04-09T10:40:59.526Z,5.33
2023-04-09T10:42:15.766Z,9.67
2023-04-09T10:43:30.103Z,8.23
2023-04-09T10:44:41.768Z,7.07
2023-04-09T10:45:57.666Z,9.37
2023-04-09T10:47:10.060Z,8.00
2023-04-09T10:48:26.123Z,5.87
2023-04-09T10:49:38.365Z,6.60
2023-04-09T10:50:52.412Z,6.57
2023-04-09T10:52:05.106Z,7.83
2023-04-09T10:53:23.998Z,6.43
2023-04-09T10:54:35.510Z,4.47
2023-04-09T10:55:51.129Z,5.43
2023-04-09T10:57:21.535Z,8.23
2023-04-09T10:58:33.931Z,7.63
2023-04-09T10:59:46.738Z,8.10
2023-04-09T11:01:01.695Z,6.83
2023-04-09T11:02:34.128Z,5.63
2023-04-09T11:03:46.877Z,5.27
2023-04-09T11:05:17.293Z,6.07
2023-04-09T11:06:29.190Z,5.70
2023-04-09T11:07:42.938Z,5.77
2023-04-09T11:08:56.044Z,5.80
2023-04-09T11:10:08.100Z,10.53
2023-04-09T11:11:25.656Z,9.00
2023-04-09T11:12:37.538Z,10.23
2023-04-09T11:13:49.627Z,12.47
2023-04-09T11:15:01.394Z,10.63
2023-04-09T11:16:13.050Z,7.23
2023-04-09T11:17:36.825Z,7.40
2023-04-09T11:18:49.010Z,5.87
2023-04-09T11:20:02.435Z,6.83
2023-04-09T11:21:14.037Z,7.73
2023-04-09T11:22:28.834Z,7.40
2023-04-09T11:23:45.839Z,6.07
2023-04-09T11:24:57.391Z,8.93
2023-04-09T11:26:09.542Z,7.57
2023-04-09T11:27:26.239Z,6.63
2023-04-09T11:28:41.258Z,6.43
2023-04-09T11:29:57.743Z,5.53
2023-04-09T11:31:09.666Z,6.00
2023-04-09T11:32:21.441Z,7.03
2023-04-09T11:33:34.354Z,7.97
2023-04-09T11:34:46.230Z,8.30
2023-04-09T11:35:57.845Z,3.47
2023-04-09T11:37:14.648Z,5.53
2023-04-09T11:38:26.224Z,7.50
2023-04-09T11:39:38.825Z,7.47
2023-04-09T11:40:52.147Z,6.87
2023-04-09T11:42:03.916Z,7.17
2023-04-09T11:43:21.168Z,5.30
2023-04-09T11:44:34.996Z,5.57
2023-04-09T11:45:49.740Z,5.20
2023-04-09T11:47:01.537Z,6.30
2023-04-09T11:48:13.796Z,6.33
2023-04-09T11:49:25.362Z,5.70
2023-04-09T11:50:37.506Z,6.80
2023-04-09T11:51:48.981Z,5.70
2023-04-09T11:53:00.497Z,5.00
2023-04-09T11:54:12.172Z,8.07
2023-04-09T11:55:24.489Z,11.73
2023-04-09T11:56:36.736Z,6.70
2023-04-09T11:57:48.239Z,6.37
2023-04-09T11:58:59.700Z,5.07
2023-04-09T12:00:12.737Z,5.27
2023-04-09T12:01:24.542Z,5.83
2023-04-09T12:02:49.394Z,5.30
2023-04-09T12:04:01.648Z,4.13
2023-04-09T12:05:21.243Z,4.03
2023-04-09T12:06:33.142Z,4.77
2023-04-09T12:07:55.655Z,8.53
2023-04-09T12:09:08.740Z,9.50
2023-04-09T12:10:20.211Z,6.10
2023-04-09T12:11:32.547Z,5.13
2023-04-09T12:12:45.439Z,12.23
2023-04-09T12:14:01.258Z,5.83
2023-04-09T12:15:13.064Z,7.47
2023-04-09T12:16:24.632Z,6.47
2023-04-09T12:17:36.635Z,12.63
2023-04-09T12:18:48.300Z,16.40
2023-04-09T12:19:59.910Z,10.17
2023-04-09T12:21:11.510Z,7.03
2023-04-09T12:22:23.069Z,8.10
2023-04-09T12:23:35.162Z,7.23
2023-04-09T12:24:46.619Z,5.30
2023-04-09T12:26:01.359Z,5.27
2023-04-09T12:27:13.092Z,8.60
2023-04-09T12:28:24.542Z,4.63
2023-04-09T12:29:36.137Z,8.37
2023-04-09T12:30:49.150Z,6.10
2023-04-09T12:32:00.771Z,5.37
2023-04-09T12:33:12.484Z,9.73
2023-04-09T12:34:23.924Z,7.43
2023-04-09T12:35:35.684Z,5.50
2023-04-09T12:36:47.177Z,6.47
2023-04-09T12:37:59.555Z,7.67
2023-04-09T12:39:11.149Z,5.30
2023-04-09T12:40:22.897Z,5.13
2023-04-09T12:41:34.494Z,7.33
2023-04-09T12:42:48.566Z,4.70
2023-04-09T12:44:00.208Z,6.10
2023-04-09T12:45:13.328Z,5.53
2023-04-09T12:46:24.982Z,4.97
2023-04-09T12:47:36.753Z,6.27
2023-04-09T12:48:48.315Z,6.33
2023-04-09T12:49:59.852Z,4.40
2023-04-09T12:51:12.042Z,5.80
2023-04-09T12:52:24.742Z,4.73
2023-04-09T12:53:36.279Z,3.87
2023-04-09T12:54:49.023Z,4.97
2023-04-09T12:56:01.530Z,4.53
2023-04-09T12:57:13.197Z,4.87
2023-04-09T12:58:24.900Z,6.43
2023-04-09T12:59:36.529Z,4.00
2023-04-09T13:00:48.015Z,5.63
2023-04-09T13:01:59.685Z,4.30
2023-04-09T13:03:12.020Z,7.50
2023-04-09T13:04:23.807Z,6.33
2023-04-09T13:05:35.636Z,5.00
2023-04-09T13:06:48.412Z,6.13
2023-04-09T13:08:00.071Z,5.77
2023-04-09T13:09:11.916Z,6.63
2023-04-09T13:10:23.585Z,7.73
2023-04-09T13:11:35.033Z,7.07
2023-04-09T13:12:46.516Z,3.90
2023-04-09T13:13:58.010Z,4.70
2023-04-09T13:15:09.710Z,4.77
2023-04-09T13:16:21.211Z,12.03
2023-04-09T13:17:32.932Z,4.50
2023-04-09T13:18:44.379Z,7.10
2023-04-09T13:19:56.113Z,6.27
2023-04-09T13:21:07.806Z,6.40
2023-04-09T13:22:19.422Z,5.20
2023-04-09T13:23:30.858Z,4.90
2023-04-09T13:24:43.281Z,7.70
2023-04-09T13:25:54.760Z,5.77
2023-04-09T13:27:06.982Z,7.63
2023-04-09T13:28:18.416Z,5.47
2023-04-09T13:29:29.861Z,5.80
2023-04-09T13:30:41.532Z,6.67
2023-04-09T13:31:59.139Z,4.87
2023-04-09T13:33:10.719Z,6.17
2023-04-09T13:34:22.264Z,5.07
2023-04-09T13:35:33.829Z,5.00
2023-04-09T13:36:45.289Z,4.70
2023-04-09T13:37:56.683Z,5.37
2023-04-09T13:39:08.158Z,5.90
2023-04-09T13:40:19.648Z,7.10
2023-04-09T13:41:36.277Z,4.67
2023-04-09T13:42:47.746Z,4.17
2023-04-09T13:43:59.768Z,5.50
2023-04-09T13:45:11.338Z,6.53
2023-04-09T13:46:22.875Z,5.87
2023-04-09T13:47:34.650Z,4.70
2023-04-09T13:48:46.265Z,5.40
2023-04-09T13:49:57.689Z,5.13
2023-04-09T13:51:09.214Z,8.60
2023-04-09T13:52:23.150Z,4.37
2023-04-09T13:53:34.646Z,5.20
2023-04-09T13:54:49.074Z,7.67
2023-04-09T13:56:00.602Z,6.03
2023-04-09T13:57:12.056Z,6.23
2023-04-09T13:58:23.548Z,5.93
2023-04-09T13:59:35.100Z,9.57
2023-04-09T14:00:47.726Z,10.53
2023-04-09T14:01:59.355Z,7.33
2023-04-09T14:03:11.297Z,5.00
2023-04-09T14:04:22.933Z,4.03
2023-04-09T14:05:34.411Z,15.97
2023-04-09T14:06:46.323Z,11.63
2023-04-09T14:07:57.869Z,14.57
2023-04-09T14:09:12.031Z,6.80
2023-04-09T14:10:25.389Z,7.17
2023-04-09T14:11:37.038Z,5.30
2023-04-09T14:12:51.543Z,7.97
2023-04-09T14:14:03.046Z,6.07
2023-04-09T14:15:14.649Z,5.93
2023-04-09T14:16:30.358Z,7.97
2023-04-09T14:17:45.460Z,5.77
2023-04-09T14:18:59.539Z,7.00
2023-04-09T14:20:11.195Z,6.20
2023-04-09T14:21:25.612Z,11.17
2023-04-09T14:22:39.279Z,7.73
2023-04-09T14:23:50.979Z,8.33
2023-04-09T14:25:05.045Z,9.50
2023-04-09T14:26:16.885Z,41.47
2023-04-09T14:27:30.576Z,37.87
2023-04-09T14:28:44.404Z,54.27
2023-04-09T14:29:55.791Z,16.27
2023-04-09T14:31:07.298Z,13.43
2023-04-09T14:32:19.298Z,8.53
2023-04-09T14:33:32.467Z,11.43
2023-04-09T14:34:43.913Z,9.53
2023-04-09T14:35:59.032Z,5.63
2023-04-09T14:37:10.623Z,7.80
2023-04-09T14:38:24.078Z,7.50
2023-04-09T14:39:35.758Z,5.87
2023-04-09T14:40:50.921Z,11.10
2023-04-09T14:42:02.620Z,8.00
2023-04-09T14:43:14.239Z,7.73
2023-04-09T14:44:27.150Z,6.43
2023-04-09T14:45:38.803Z,9.90
2023-04-09T14:46:52.476Z,6.37
2023-04-09T14:48:09.223Z,4.63
2023-04-09T14:49:21.270Z,4.33
2023-04-09T14:50:33.985Z,4.87
2023-04-09T14:51:45.699Z,4.17
2023-04-09T14:52:57.149Z,6.70
2023-04-09T14:54:10.523Z,4.77
2023-04-09T14:55:25.892Z,8.03
2023-04-09T14:56:39.724Z,5.47
2023-04-09T14:57:51.508Z,12.07
2023-04-09T14:59:03.090Z,9.00
2023-04-09T15:00:14.790Z,11.40
2023-04-09T15:01:28.880Z,10.07
2023-04-09T15:02:46.325Z,8.80
2023-04-09T15:03:59.797Z,11.67
2023-04-09T15:05:11.397Z,9.70
2023-04-09T15:06:23.054Z,8.13
2023-04-09T15:07:34.737Z,8.47
2023-04-09T15:08:46.330Z,6.03
2023-04-09T15:10:00.622Z,8.33
2023-04-09T15:11:16.142Z,19.00
2023-04-09T15:12:28.201Z,15.57
2023-04-09T15:13:39.811Z,16.03
2023-04-09T15:14:51.335Z,17.07
2023-04-09T15:16:02.888Z,20.87
2023-04-09T15:17:14.312Z,11.67
2023-04-09T15:18:25.842Z,12.70
2023-04-09T15:19:37.412Z,7.27
2023-04-09T15:20:49.166Z,7.77
2023-04-09T15:22:00.733Z,8.80
2023-04-09T15:23:12.340Z,7.00
2023-04-09T15:24:26.029Z,9.50
2023-04-09T15:25:37.794Z,7.63
2023-04-09T15:26:52.012Z,8.70
2023-04-09T15:28:03.584Z,5.63
2023-04-09T15:29:17.436Z,5.40
2023-04-09T15:30:29.065Z,7.97
2023-04-09T15:31:41.674Z,7.53
2023-04-09T15:32:53.289Z,7.60
2023-04-09T15:34:05.146Z,6.83
2023-04-09T15:35:24.843Z,11.43
2023-04-09T15:36:36.339Z,11.63
2023-04-09T15:37:47.823Z,12.80
2023-04-09T15:38:59.516Z,17.77
2023-04-09T15:40:11.252Z,16.30
2023-04-09T15:41:25.936Z,15.30
2023-04-09T15:42:37.363Z,15.10
2023-04-09T15:43:51.870Z,15.67
2023-04-09T15:45:03.364Z,10.40
2023-04-09T15:46:16.429Z,13.13
2023-04-09T15:47:27.981Z,9.80
2023-04-09T15:48:39.544Z,11.77
2023-04-09T15:49:51.006Z,9.83
2023-04-09T15:51:02.544Z,9.97